createdAt,value
2018-11-06T00:06:45.441Z,73.70
2018-11-06T00:16:48.688Z,74.40
2018-11-06T00:26:51.985Z,74.40
2018-11-06T00:36:55.229Z,73.80
2018-11-06T00:46:58.560Z,73.50
2018-11-06T00:57:01.833Z,74.00
2018-11-06T01:07:05.221Z,74.10
2018-11-06T01:17:08.492Z,73.70
2018-11-06T01:27:11.739Z,73.60
2018-11-06T01:37:14.984Z,74.10
2018-11-06T01:47:18.460Z,73.70
2018-11-06T01:57:21.752Z,73.80
2018-11-06T02:07:25.024Z,75.00
2018-11-06T02:17:28.292Z,76.40
2018-11-06T02:27:31.575Z,75.90
2018-11-06T02:37:34.841Z,77.60
2018-11-06T02:47:38.192Z,78.20
2018-11-06T02:57:41.983Z,78.20
2018-11-06T03:07:45.335Z,78.20
2018-11-06T03:17:48.551Z,78.10
2018-11-06T03:27:51.773Z,78.00
2018-11-06T03:37:54.989Z,78.70
2018-11-06T03:47:58.232Z,78.50
2018-11-06T03:58:01.471Z,78.70
2018-11-06T04:08:04.917Z,79.10
2018-11-06T04:18:08.128Z,79.10
2018-11-06T04:28:11.420Z,79.20
2018-11-06T04:38:14.641Z,78.40
2018-11-06T04:48:17.856Z,79.00
2018-11-06T04:58:21.097Z,78.10
2018-11-06T05:08:24.320Z,79.00
2018-11-06T05:18:27.552Z,79.40
2018-11-06T05:28:30.812Z,79.50
2018-11-06T05:38:34.112Z,80.10
2018-11-06T05:48:37.348Z,78.60
2018-11-06T05:58:40.652Z,78.60
2018-11-06T06:08:43.891Z,79.10
2018-11-06T06:18:47.101Z,78.90
2018-11-06T06:28:50.641Z,78.70
2018-11-06T06:38:54.092Z,79.00
2018-11-06T06:48:57.516Z,79.50
2018-11-06T06:59:00.780Z,78.70
2018-11-06T07:09:05.300Z,79.80
2018-11-06T07:19:08.492Z,80.40
2018-11-06T07:29:11.740Z,79.20
2018-11-06T07:39:14.957Z,79.60
2018-11-06T07:49:18.211Z,78.70
2018-11-06T07:59:21.520Z,79.10
2018-11-06T08:09:24.790Z,78.60
2018-11-06T08:19:28.244Z,78.70
2018-11-06T08:29:31.488Z,78.60
2018-11-06T08:39:34.700Z,77.90
2018-11-06T08:49:37.929Z,76.90
2018-11-06T08:59:41.756Z,77.80
2018-11-06T09:09:44.983Z,78.50
2018-11-06T09:19:48.360Z,77.40
2018-11-06T09:29:51.553Z,78.40
2018-11-06T09:39:54.783Z,79.30
2018-11-06T09:49:58.009Z,79.40
2018-11-06T10:00:01.290Z,78.00
2018-11-06T10:10:04.997Z,77.90
2018-11-06T10:20:08.973Z,77.20
2018-11-06T10:30:14.180Z,77.20
2018-11-06T10:40:18.909Z,76.60
2018-11-06T10:50:22.164Z,76.10
2018-11-06T11:00:30.709Z,75.40
2018-11-06T11:10:33.972Z,74.90
2018-11-06T11:20:37.232Z,74.10
2018-11-06T11:30:40.464Z,73.30
2018-11-06T11:40:43.680Z,73.10
2018-11-06T11:50:47.109Z,72.40
2018-11-06T12:00:50.345Z,71.90
2018-11-06T12:10:53.607Z,70.90
2018-11-06T12:20:56.832Z,70.30
2018-11-06T12:31:00.070Z,69.50
2018-11-06T12:41:03.426Z,68.70
2018-11-06T12:51:06.705Z,68.00
2018-11-06T13:01:09.968Z,67.60
2018-11-06T13:11:13.211Z,67.20
2018-11-06T13:21:17.367Z,67.10
2018-11-06T13:31:20.601Z,66.90
2018-11-06T13:41:23.963Z,66.80
2018-11-06T13:51:27.213Z,66.80
2018-11-06T14:01:30.440Z,66.70
2018-11-06T14:11:33.684Z,66.70
2018-11-06T14:21:36.917Z,66.60
2018-11-06T14:31:40.137Z,66.60
2018-11-06T14:41:43.359Z,66.60
2018-11-06T14:51:46.600Z,67.20
2018-11-06T15:01:49.878Z,67.80
2018-11-06T15:11:54.581Z,68.40
2018-11-06T15:21:58.281Z,69.20
2018-11-06T15:32:01.532Z,69.70
2018-11-06T15:42:04.862Z,70.40
2018-11-06T15:52:08.045Z,70.90
2018-11-06T16:02:11.309Z,71.10
2018-11-06T16:12:14.530Z,71.60
2018-11-06T16:22:17.776Z,72.10
2018-11-06T16:32:21.078Z,72.40
2018-11-06T16:42:24.985Z,72.70
2018-11-06T16:52:28.418Z,73.10
2018-11-06T17:02:31.704Z,73.60
2018-11-06T17:12:34.952Z,73.80
2018-11-06T17:22:38.225Z,74.10
2018-11-06T17:32:42.014Z,73.60
2018-11-06T17:42:45.393Z,74.50
2018-11-06T17:52:48.665Z,74.70
2018-11-06T18:02:51.887Z,75.10
2018-11-06T18:12:55.260Z,75.00
2018-11-06T18:22:58.495Z,75.30
2018-11-06T18:33:01.812Z,75.40
2018-11-06T18:43:05.162Z,76.30
2018-11-06T18:53:08.548Z,76.10
2018-11-06T19:03:11.784Z,76.20
2018-11-06T19:13:15.009Z,76.50
2018-11-06T19:23:18.228Z,76.40
2018-11-06T19:33:21.493Z,76.50
2018-11-06T19:43:25.620Z,76.50
2018-11-06T19:53:28.903Z,75.80
2018-11-06T20:03:32.163Z,76.70
2018-11-06T20:13:35.361Z,76.70
2018-11-06T20:23:38.621Z,76.70
2018-11-06T20:33:41.968Z,75.90
2018-11-06T20:43:45.071Z,76.60
2018-11-06T20:53:48.362Z,76.70
2018-11-06T21:03:51.613Z,76.90
2018-11-06T21:13:54.845Z,77.30
2018-11-06T21:23:58.123Z,77.40
2018-11-06T21:34:01.445Z,77.30
2018-11-06T21:44:04.633Z,76.90
2018-11-06T21:54:07.982Z,76.70
2018-11-06T22:04:11.237Z,77.30
2018-11-06T22:14:14.485Z,77.50
2018-11-06T22:24:17.831Z,77.30
2018-11-06T22:34:21.120Z,76.70
2018-11-06T22:44:24.380Z,77.60
2018-11-06T22:54:27.609Z,77.30
2018-11-06T23:04:30.884Z,77.30
2018-11-06T23:14:34.166Z,77.60
2018-11-06T23:24:37.366Z,77.50
2018-11-06T23:34:41.463Z,77.00
2018-11-06T23:44:44.701Z,77.90
2018-11-06T23:54:47.936Z,77.80
